createdAt,value
2023-02-08T00:02:42.580Z,-3.26
2023-02-08T00:10:17.935Z,-3.30
2023-02-08T00:17:51.776Z,-3.45
2023-02-08T00:25:27.047Z,-3.52
2023-02-08T00:33:01.511Z,-3.53
2023-02-08T00:40:36.892Z,-3.55
2023-02-08T00:48:10.752Z,-3.57
2023-02-08T00:55:53.019Z,-3.60
2023-02-08T01:03:27.467Z,-3.64
2023-02-08T01:11:07.602Z,-3.69
2023-02-08T01:18:43.183Z,-3.69
2023-02-08T01:26:20.914Z,-3.73
2023-02-08T01:33:54.884Z,-3.83
2023-02-08T01:41:33.311Z,-3.86
2023-02-08T01:49:12.337Z,-3.87
2023-02-08T02:04:40.317Z,-3.96
2023-02-08T02:12:16.100Z,-4.03
2023-02-08T02:20:00.969Z,-4.08
2023-02-08T02:27:56.558Z,-4.12
2023-02-08T02:35:42.539Z,-4.15
2023-02-08T02:43:39.876Z,-4.16
2023-02-08T02:51:19.899Z,-4.15
2023-02-08T02:58:57.312Z,-4.22
2023-02-08T03:06:47.055Z,-4.26
2023-02-08T03:14:39.797Z,-4.26
2023-02-08T03:22:18.405Z,-4.27
2023-02-08T03:29:59.564Z,-4.29
2023-02-08T03:37:40.721Z,-4.27
2023-02-08T03:45:20.180Z,-4.29
2023-02-08T03:52:57.566Z,-4.31
2023-02-08T04:00:35.441Z,-4.34
2023-02-08T04:08:11.065Z,-4.36
2023-02-08T04:15:45.274Z,-4.38
2023-02-08T04:23:20.555Z,-4.38
2023-02-08T04:30:57.427Z,-4.40
2023-02-08T04:38:32.639Z,-4.43
2023-02-08T04:46:06.786Z,-4.43
2023-02-08T04:53:42.204Z,-4.45
2023-02-08T05:01:17.519Z,-4.52
2023-02-08T05:08:52.803Z,-4.51
2023-02-08T05:16:26.974Z,-4.52
2023-02-08T05:24:02.208Z,-4.52
2023-02-08T05:31:36.603Z,-4.52
2023-02-08T05:39:12.106Z,-4.56
2023-02-08T05:46:46.382Z,-4.57
2023-02-08T05:54:21.708Z,-4.56
2023-02-08T06:01:56.652Z,-4.54
2023-02-08T06:09:31.848Z,-4.52
2023-02-08T06:17:05.727Z,-4.49
2023-02-08T06:24:41.028Z,-4.51
2023-02-08T06:32:14.962Z,-4.47
2023-02-08T06:39:50.312Z,-4.53
2023-02-08T06:47:24.757Z,-4.59
2023-02-08T06:55:00.009Z,-4.57
2023-02-08T07:02:34.238Z,-4.56
2023-02-08T07:10:10.165Z,-4.59
2023-02-08T07:17:44.274Z,-4.55
2023-02-08T07:25:19.805Z,-4.47
2023-02-08T07:32:53.710Z,-4.30
2023-02-08T07:40:28.958Z,-3.93
2023-02-08T07:48:02.775Z,-3.48
2023-02-08T07:55:38.096Z,-2.90
2023-02-08T08:03:12.419Z,-2.67
2023-02-08T08:10:48.165Z,-2.59
2023-02-08T08:18:22.083Z,-2.39
2023-02-08T08:25:57.425Z,-1.87
2023-02-08T08:33:31.241Z,-1.46
2023-02-08T08:41:09.877Z,-1.05
2023-02-08T08:48:43.859Z,-0.56
2023-02-08T08:56:19.138Z,-0.25
2023-02-08T09:03:53.565Z,-0.15
2023-02-08T09:11:29.033Z,0.17
2023-02-08T09:19:03.228Z,0.41
2023-02-08T09:26:39.380Z,0.42
2023-02-08T09:34:13.438Z,0.35
2023-02-08T09:42:01.256Z,0.55
2023-02-08T09:49:39.311Z,0.66
2023-02-08T09:57:18.139Z,0.44
2023-02-08T10:04:58.908Z,0.48
2023-02-08T10:12:58.763Z,0.49
2023-02-08T10:20:45.125Z,0.37
2023-02-08T10:28:39.481Z,0.21
2023-02-08T10:36:16.245Z,0.19
2023-02-08T10:44:02.642Z,0.34
2023-02-08T10:51:37.225Z,0.45
2023-02-08T10:59:21.092Z,0.53
2023-02-08T11:06:56.076Z,0.53
2023-02-08T11:14:46.165Z,0.66
2023-02-08T11:22:23.225Z,0.73
2023-02-08T11:30:19.286Z,0.67
2023-02-08T11:37:55.750Z,0.72
2023-02-08T11:45:34.454Z,0.74
2023-02-08T11:53:23.432Z,0.80
2023-02-08T12:01:04.670Z,0.86
2023-02-08T12:08:46.640Z,1.07
2023-02-08T12:16:47.186Z,1.14
2023-02-08T12:24:32.155Z,1.19
2023-02-08T12:32:31.077Z,1.25
2023-02-08T12:40:39.871Z,1.35
2023-02-08T12:48:37.184Z,1.43
2023-02-08T12:56:17.030Z,1.47
2023-02-08T13:03:57.704Z,1.52
2023-02-08T13:11:37.461Z,1.52
2023-02-08T13:19:27.922Z,1.58
2023-02-08T13:27:02.411Z,1.72
2023-02-08T13:34:42.049Z,1.76
2023-02-08T13:42:28.797Z,1.76
2023-02-08T13:50:07.810Z,1.76
2023-02-08T13:57:53.181Z,1.74
2023-02-08T14:05:45.988Z,1.75
2023-02-08T14:13:32.306Z,1.82
2023-02-08T14:21:09.448Z,1.87
2023-02-08T14:28:48.835Z,1.89
2023-02-08T14:36:30.205Z,1.83
2023-02-08T14:44:55.611Z,1.81
2023-02-08T14:52:31.331Z,1.85
2023-02-08T15:00:08.816Z,1.77
2023-02-08T15:07:50.703Z,1.69
2023-02-08T15:15:30.270Z,1.61
2023-02-08T15:23:07.684Z,1.51
2023-02-08T15:30:42.802Z,1.46
2023-02-08T15:38:22.258Z,1.37
2023-02-08T15:46:00.288Z,1.25
2023-02-08T15:53:37.195Z,1.17
2023-02-08T16:01:19.907Z,1.04
2023-02-08T16:08:59.767Z,0.92
2023-02-08T16:16:42.159Z,0.78
2023-02-08T16:24:27.191Z,0.64
2023-02-08T16:32:11.168Z,0.54
2023-02-08T16:40:00.368Z,0.46
2023-02-08T16:47:40.038Z,0.33
2023-02-08T16:55:20.718Z,0.27
2023-02-08T17:02:56.131Z,0.17
2023-02-08T17:10:33.513Z,0.11
2023-02-08T17:18:08.450Z,0.04
2023-02-08T17:25:44.140Z,-0.04
2023-02-08T17:33:21.250Z,-0.11
2023-02-08T17:40:56.546Z,-0.20
2023-02-08T17:48:30.388Z,-0.20
2023-02-08T17:56:08.276Z,-0.22
2023-02-08T18:03:42.059Z,-0.27
2023-02-08T18:11:20.210Z,-0.34
2023-02-08T18:18:56.675Z,-0.39
2023-02-08T18:26:33.548Z,-0.47
2023-02-08T18:34:07.350Z,-0.53
2023-02-08T18:41:43.381Z,-0.61
2023-02-08T18:49:17.766Z,-0.72
2023-02-08T18:56:55.834Z,-0.89
2023-02-08T19:04:30.648Z,-0.96
2023-02-08T19:12:07.543Z,-0.97
2023-02-08T19:19:42.231Z,-1.02
2023-02-08T19:27:17.391Z,-1.13
2023-02-08T19:34:51.253Z,-1.19
2023-02-08T19:42:26.500Z,-1.23
2023-02-08T19:50:00.293Z,-1.23
2023-02-08T19:57:38.420Z,-1.26
2023-02-08T20:05:12.255Z,-1.27
2023-02-08T20:12:48.002Z,-1.27
2023-02-08T20:20:22.612Z,-1.28
2023-02-08T20:27:58.264Z,-1.34
2023-02-08T20:35:32.261Z,-1.37
2023-02-08T20:43:07.517Z,-1.39
2023-02-08T20:50:41.502Z,-1.43
2023-02-08T20:58:16.865Z,-1.56
2023-02-08T21:05:50.709Z,-1.59
2023-02-08T21:13:25.789Z,-1.64
2023-02-08T21:21:01.617Z,-1.59
2023-02-08T21:28:36.979Z,-1.57
2023-02-08T21:36:13.746Z,-1.58
2023-02-08T21:43:49.604Z,-1.61
2023-02-08T21:51:41.849Z,-1.66
2023-02-08T21:59:17.235Z,-1.69
2023-02-08T22:06:52.079Z,-1.78
2023-02-08T22:14:27.401Z,-1.86
2023-02-08T22:22:03.415Z,-1.87
2023-02-08T22:29:38.895Z,-1.92
2023-02-08T22:37:12.973Z,-1.95
2023-02-08T22:44:48.208Z,-2.03
2023-02-08T22:52:21.990Z,-2.05
2023-02-08T22:59:57.046Z,-2.08
2023-02-08T23:07:30.861Z,-2.16
2023-02-08T23:15:06.184Z,-2.18
2023-02-08T23:22:40.082Z,-2.20
2023-02-08T23:30:16.060Z,-2.20
2023-02-08T23:37:50.087Z,-2.26
2023-02-08T23:45:26.227Z,-2.29
2023-02-08T23:53:00.128Z,-2.30
